createdAt,value
2023-01-31T00:01:19.916Z,2.54
2023-01-31T00:03:22.809Z,2.65
2023-01-31T00:05:27.367Z,2.68
2023-01-31T00:07:30.159Z,2.59
2023-01-31T00:09:32.832Z,2.57
2023-01-31T00:11:35.458Z,2.52
2023-01-31T00:13:39.061Z,2.46
2023-01-31T00:15:41.830Z,2.47
2023-01-31T00:17:44.522Z,2.46
2023-01-31T00:19:47.141Z,2.45
2023-01-31T00:21:51.159Z,2.52
2023-01-31T00:23:55.107Z,2.48
2023-01-31T00:26:08.325Z,2.35
2023-01-31T00:28:10.936Z,2.35
2023-01-31T00:30:13.767Z,2.27
2023-01-31T00:32:16.416Z,2.37
2023-01-31T00:34:19.714Z,2.25
2023-01-31T00:36:25.078Z,2.22
2023-01-31T00:38:29.124Z,2.20
2023-01-31T00:40:31.740Z,2.19
2023-01-31T00:42:34.720Z,2.19
2023-01-31T00:44:37.879Z,2.23
2023-01-31T00:46:40.528Z,2.07
2023-01-31T00:48:43.600Z,2.09
2023-01-31T00:50:46.295Z,1.99
2023-01-31T00:52:48.958Z,1.99
2023-01-31T00:54:52.999Z,1.91
2023-01-31T00:56:55.639Z,1.96
2023-01-31T00:58:58.296Z,1.78
2023-01-31T01:01:07.536Z,1.79
2023-01-31T01:03:10.451Z,1.77
2023-01-31T01:05:13.149Z,1.75
2023-01-31T01:07:15.816Z,1.78
2023-01-31T01:09:18.510Z,1.77
2023-01-31T01:11:24.393Z,1.79
2023-01-31T01:13:26.977Z,1.78
2023-01-31T01:15:29.731Z,1.70
2023-01-31T01:17:32.706Z,1.75
2023-01-31T01:19:35.963Z,1.77
2023-01-31T01:21:39.265Z,1.75
2023-01-31T01:23:42.794Z,1.81
2023-01-31T01:25:46.426Z,1.80
2023-01-31T01:27:50.397Z,1.74
2023-01-31T01:29:53.069Z,1.77
2023-01-31T01:31:55.826Z,1.80
2023-01-31T01:34:00.201Z,1.86
2023-01-31T01:36:03.309Z,1.87
2023-01-31T01:38:05.933Z,1.82
2023-01-31T01:40:10.099Z,1.82
2023-01-31T01:42:16.508Z,1.89
2023-01-31T01:44:50.249Z,1.80
2023-01-31T01:46:53.233Z,1.80
2023-01-31T01:49:01.887Z,1.81
2023-01-31T01:51:06.482Z,1.84
2023-01-31T01:53:13.112Z,1.79
2023-01-31T01:55:22.726Z,1.79
2023-01-31T01:57:33.733Z,1.74
2023-01-31T01:59:40.705Z,1.69
2023-01-31T02:01:46.635Z,1.68
2023-01-31T02:03:51.620Z,1.65
2023-01-31T02:05:57.331Z,1.70
2023-01-31T02:08:01.696Z,1.74
2023-01-31T02:10:09.611Z,1.70
2023-01-31T02:12:13.210Z,1.77
2023-01-31T02:14:16.800Z,1.68
2023-01-31T02:16:19.662Z,1.63
2023-01-31T02:18:25.673Z,1.68
2023-01-31T02:20:49.080Z,1.66
2023-01-31T02:23:04.357Z,1.58
2023-01-31T02:25:39.301Z,1.59
2023-01-31T02:28:23.145Z,1.51
2023-01-31T02:31:02.911Z,1.42
2023-01-31T02:33:19.065Z,1.41
2023-01-31T02:35:31.958Z,1.42
2023-01-31T02:37:44.211Z,1.36
2023-01-31T02:39:57.261Z,1.37
2023-01-31T02:42:06.936Z,1.37
2023-01-31T02:44:38.515Z,1.40
2023-01-31T02:46:49.042Z,1.37
2023-01-31T02:48:57.216Z,1.41
2023-01-31T02:51:06.413Z,1.54
2023-01-31T02:53:13.819Z,1.52
2023-01-31T02:55:38.086Z,1.46
2023-01-31T02:57:43.505Z,1.49
2023-01-31T02:59:47.007Z,1.46
2023-01-31T03:01:56.117Z,1.42
2023-01-31T03:04:02.886Z,1.37
2023-01-31T03:06:54.811Z,1.35
2023-01-31T03:09:02.270Z,1.38
2023-01-31T03:11:09.316Z,1.39
2023-01-31T03:13:25.312Z,1.45
2023-01-31T03:16:08.624Z,1.46
2023-01-31T03:18:17.571Z,1.43
2023-01-31T03:20:25.675Z,1.34
2023-01-31T03:22:32.710Z,1.41
2023-01-31T03:24:36.320Z,1.49
2023-01-31T03:26:39.459Z,1.42
2023-01-31T03:28:44.062Z,1.29
2023-01-31T03:30:50.836Z,1.32
2023-01-31T03:32:57.057Z,1.33
2023-01-31T03:34:59.933Z,1.27
2023-01-31T03:37:12.897Z,1.27
2023-01-31T03:39:24.301Z,1.27
2023-01-31T03:41:36.020Z,1.16
2023-01-31T03:43:47.005Z,1.22
2023-01-31T03:45:54.106Z,1.16
2023-01-31T03:47:58.530Z,1.16
2023-01-31T03:50:07.790Z,1.15
2023-01-31T03:52:16.350Z,1.28
2023-01-31T03:54:24.980Z,1.16
2023-01-31T03:56:33.264Z,1.11
2023-01-31T03:58:39.572Z,1.10
2023-01-31T04:00:44.757Z,1.16
2023-01-31T04:02:53.858Z,1.16
2023-01-31T04:05:00.816Z,1.13
2023-01-31T04:07:03.606Z,1.13
2023-01-31T04:09:08.001Z,1.13
2023-01-31T04:11:13.352Z,1.15
2023-01-31T04:13:16.134Z,1.17
2023-01-31T04:15:19.379Z,1.12
2023-01-31T04:17:22.392Z,1.07
2023-01-31T04:19:24.993Z,1.10
2023-01-31T04:21:27.712Z,1.04
2023-01-31T04:23:30.450Z,1.09
2023-01-31T04:25:34.559Z,1.00
2023-01-31T04:27:37.408Z,1.03
2023-01-31T04:29:40.220Z,0.94
2023-01-31T04:31:42.970Z,0.94
2023-01-31T04:33:45.641Z,0.92
2023-01-31T04:35:48.441Z,0.98
2023-01-31T04:37:51.169Z,0.96
2023-01-31T04:39:53.795Z,0.92
2023-01-31T04:41:57.906Z,0.91
2023-01-31T04:44:00.517Z,0.92
2023-01-31T04:46:03.268Z,0.90
2023-01-31T04:48:06.784Z,0.87
2023-01-31T04:50:10.548Z,0.88
2023-01-31T04:52:13.432Z,0.84
2023-01-31T04:54:16.745Z,0.90
2023-01-31T04:56:19.509Z,0.88
2023-01-31T04:58:24.386Z,0.91
2023-01-31T05:00:27.884Z,0.96
2023-01-31T05:02:32.194Z,1.01
2023-01-31T05:04:35.240Z,1.08
2023-01-31T05:06:38.682Z,1.11
2023-01-31T05:08:41.437Z,1.09
2023-01-31T05:10:44.452Z,1.17
2023-01-31T05:12:47.960Z,1.19
2023-01-31T05:14:52.244Z,1.19
2023-01-31T05:16:54.977Z,1.22
2023-01-31T05:18:57.680Z,1.07
2023-01-31T05:21:00.316Z,1.00
2023-01-31T05:23:03.773Z,1.04
2023-01-31T05:25:07.152Z,1.09
2023-01-31T05:27:11.172Z,0.99
2023-01-31T05:29:14.134Z,1.00
2023-01-31T05:31:18.161Z,0.96
2023-01-31T05:33:21.687Z,1.06
2023-01-31T05:35:24.332Z,1.08
2023-01-31T05:37:27.001Z,1.08
2023-01-31T05:39:30.230Z,1.03
2023-01-31T05:41:32.857Z,1.02
2023-01-31T05:43:36.451Z,1.02
2023-01-31T05:45:39.757Z,0.98
2023-01-31T05:47:43.884Z,0.96
2023-01-31T05:49:46.538Z,0.93
2023-01-31T05:51:49.286Z,0.96
2023-01-31T05:53:52.082Z,1.00
2023-01-31T05:55:54.886Z,0.91
2023-01-31T05:57:58.029Z,0.77
2023-01-31T06:00:01.264Z,0.70
2023-01-31T06:02:04.164Z,0.70
2023-01-31T06:04:08.349Z,0.77
2023-01-31T06:06:11.089Z,0.64
2023-01-31T06:08:13.907Z,0.66
2023-01-31T06:10:16.631Z,0.63
2023-01-31T06:12:19.216Z,0.61
2023-01-31T06:14:21.846Z,0.56
2023-01-31T06:16:24.553Z,0.51
2023-01-31T06:18:27.683Z,0.57
2023-01-31T06:20:31.852Z,0.47
2023-01-31T06:22:34.557Z,0.41
2023-01-31T06:24:37.230Z,0.45
2023-01-31T06:26:39.934Z,0.43
2023-01-31T06:28:43.976Z,0.40
2023-01-31T06:30:48.303Z,0.43
2023-01-31T06:32:51.016Z,0.46
2023-01-31T06:34:53.747Z,0.39
2023-01-31T06:36:59.079Z,0.32
2023-01-31T06:39:01.981Z,0.29
2023-01-31T06:41:04.959Z,0.25
2023-01-31T06:43:07.760Z,0.18
2023-01-31T06:45:11.525Z,0.23
2023-01-31T06:47:14.707Z,0.22
2023-01-31T06:49:17.370Z,0.26
2023-01-31T06:51:20.208Z,0.22
2023-01-31T06:53:24.295Z,0.22
2023-01-31T06:55:27.020Z,0.19
2023-01-31T06:57:30.281Z,0.20
2023-01-31T06:59:33.547Z,0.19
2023-01-31T07:01:36.356Z,0.21
2023-01-31T07:03:39.546Z,0.23
2023-01-31T07:05:42.669Z,0.23
2023-01-31T07:07:45.595Z,0.20
2023-01-31T07:09:49.745Z,0.27
2023-01-31T07:11:52.596Z,0.27
2023-01-31T07:13:55.289Z,0.24
2023-01-31T07:15:58.340Z,0.24
2023-01-31T07:18:01.091Z,0.33
2023-01-31T07:20:04.072Z,0.44
2023-01-31T07:22:06.722Z,0.43
2023-01-31T07:24:09.924Z,0.52
2023-01-31T07:26:14.354Z,0.50
2023-01-31T07:28:16.985Z,0.60
2023-01-31T07:30:20.452Z,0.56
2023-01-31T07:32:23.164Z,0.61
2023-01-31T07:34:25.937Z,0.69
2023-01-31T07:36:28.686Z,0.70
2023-01-31T07:38:31.440Z,0.89
2023-01-31T07:40:34.085Z,1.02
2023-01-31T07:42:38.204Z,0.96
2023-01-31T07:44:40.820Z,0.99
2023-01-31T07:46:43.497Z,1.05
2023-01-31T07:48:46.259Z,1.05
2023-01-31T07:50:49.157Z,1.16
2023-01-31T07:52:51.818Z,1.03
2023-01-31T07:54:54.449Z,1.23
2023-01-31T07:56:57.048Z,1.35
2023-01-31T07:59:01.056Z,1.31
2023-01-31T08:01:23.939Z,1.39
2023-01-31T08:03:34.549Z,1.70
2023-01-31T08:05:37.379Z,1.90
2023-01-31T08:07:40.039Z,2.10
2023-01-31T08:09:43.513Z,2.03
2023-01-31T08:11:46.236Z,1.88
2023-01-31T08:13:48.899Z,2.10
2023-01-31T08:15:53.948Z,2.36
2023-01-31T08:17:57.111Z,2.11
2023-01-31T08:19:59.811Z,2.36
2023-01-31T08:22:02.689Z,2.49
2023-01-31T08:24:05.848Z,2.49
2023-01-31T08:26:11.579Z,2.70
2023-01-31T08:28:15.111Z,3.13
2023-01-31T08:30:18.170Z,2.78
2023-01-31T08:32:22.317Z,2.74
2023-01-31T08:34:24.920Z,3.42
2023-01-31T08:36:31.671Z,3.41
2023-01-31T08:38:34.374Z,4.04
2023-01-31T08:40:36.970Z,3.36
2023-01-31T08:42:40.441Z,3.15
2023-01-31T08:44:43.790Z,3.03
2023-01-31T08:46:46.870Z,3.30
2023-01-31T08:48:51.081Z,3.19
2023-01-31T08:50:53.757Z,4.37
2023-01-31T08:52:57.272Z,3.24
2023-01-31T08:54:59.913Z,3.17
2023-01-31T08:57:02.580Z,2.64
2023-01-31T08:59:05.223Z,2.54
2023-01-31T09:01:10.612Z,2.65
2023-01-31T09:03:16.908Z,2.83
2023-01-31T09:05:22.027Z,2.83
2023-01-31T09:07:24.761Z,2.93
2023-01-31T09:09:29.737Z,2.60
2023-01-31T09:11:32.618Z,2.68
2023-01-31T09:13:35.645Z,2.99
2023-01-31T09:15:38.322Z,2.92
2023-01-31T09:17:41.634Z,2.92
2023-01-31T09:19:44.429Z,3.13
2023-01-31T09:21:48.409Z,3.39
2023-01-31T09:23:56.144Z,3.35
2023-01-31T09:25:58.872Z,4.06
2023-01-31T09:28:02.837Z,4.17
2023-01-31T09:30:06.847Z,4.09
2023-01-31T09:32:09.504Z,3.97
2023-01-31T09:34:13.547Z,3.75
2023-01-31T09:36:18.326Z,3.63
2023-01-31T09:38:23.400Z,3.42
2023-01-31T09:40:32.442Z,3.57
2023-01-31T09:42:41.309Z,3.43
2023-01-31T09:44:47.961Z,3.50
2023-01-31T09:46:55.483Z,3.63
2023-01-31T09:49:00.749Z,3.88
2023-01-31T09:51:05.086Z,4.88
2023-01-31T09:53:07.750Z,4.04
2023-01-31T09:55:17.293Z,3.70
2023-01-31T09:57:28.681Z,3.93
2023-01-31T09:59:41.204Z,3.61
2023-01-31T10:01:50.197Z,3.66
2023-01-31T10:04:02.671Z,3.81
2023-01-31T10:06:15.902Z,3.67
2023-01-31T10:08:30.705Z,3.45
2023-01-31T10:10:38.993Z,3.45
2023-01-31T10:12:47.261Z,3.54
2023-01-31T10:14:54.617Z,3.41
2023-01-31T10:17:04.492Z,3.59
2023-01-31T10:19:13.352Z,3.54
2023-01-31T10:21:20.599Z,3.68
2023-01-31T10:23:30.388Z,3.62
2023-01-31T10:25:39.992Z,3.61
2023-01-31T10:27:48.753Z,3.68
2023-01-31T10:29:55.104Z,3.82
2023-01-31T10:32:01.911Z,3.68
2023-01-31T10:34:10.639Z,3.59
2023-01-31T10:36:19.877Z,3.61
2023-01-31T10:38:28.823Z,3.63
2023-01-31T10:40:34.873Z,3.87
2023-01-31T10:42:42.521Z,3.76
2023-01-31T10:44:51.453Z,4.05
2023-01-31T10:46:59.539Z,4.01
2023-01-31T10:49:03.328Z,4.18
2023-01-31T10:51:16.885Z,4.03
2023-01-31T10:53:35.933Z,3.60
2023-01-31T10:55:56.713Z,3.89
2023-01-31T10:58:01.541Z,3.77
2023-01-31T11:00:06.276Z,3.67
2023-01-31T11:02:20.809Z,3.84
2023-01-31T11:04:26.978Z,3.81
2023-01-31T11:06:29.739Z,3.75
2023-01-31T11:08:36.596Z,3.76
2023-01-31T11:10:51.723Z,3.92
2023-01-31T11:12:56.626Z,3.99
2023-01-31T11:15:09.298Z,3.90
2023-01-31T11:17:18.349Z,3.95
2023-01-31T11:19:34.405Z,4.07
2023-01-31T11:21:38.024Z,4.14
2023-01-31T11:23:40.709Z,4.21
2023-01-31T11:25:48.931Z,4.38
2023-01-31T11:27:55.094Z,4.51
2023-01-31T11:30:00.399Z,4.41
2023-01-31T11:32:07.643Z,4.35
2023-01-31T11:34:20.882Z,4.18
2023-01-31T11:36:24.265Z,4.21
2023-01-31T11:38:28.620Z,4.15
2023-01-31T11:40:34.718Z,4.01
2023-01-31T11:42:52.456Z,4.12
2023-01-31T11:45:00.694Z,4.16
2023-01-31T11:47:07.959Z,3.91
2023-01-31T11:49:15.617Z,3.95
2023-01-31T11:51:27.773Z,4.22
2023-01-31T11:53:39.192Z,4.26
2023-01-31T11:55:43.427Z,4.32
2023-01-31T11:57:46.524Z,4.44
2023-01-31T11:59:50.587Z,4.50
2023-01-31T12:01:56.087Z,4.35
2023-01-31T12:04:04.649Z,4.45
2023-01-31T12:06:09.738Z,4.43
2023-01-31T12:08:30.293Z,4.62
2023-01-31T12:10:41.193Z,4.94
2023-01-31T12:12:47.469Z,5.04
2023-01-31T12:14:50.201Z,4.88
2023-01-31T12:16:57.159Z,4.88
2023-01-31T12:19:21.086Z,4.74
2023-01-31T12:21:36.770Z,4.59
2023-01-31T12:23:52.447Z,4.56
2023-01-31T12:26:09.275Z,4.50
2023-01-31T12:28:24.842Z,4.49
2023-01-31T12:30:41.236Z,4.66
2023-01-31T12:33:00.650Z,4.65
2023-01-31T12:35:23.242Z,4.28
2023-01-31T12:37:36.443Z,4.28
2023-01-31T12:39:56.287Z,4.62
2023-01-31T12:42:17.152Z,4.70
2023-01-31T12:44:37.502Z,5.02
2023-01-31T12:46:45.490Z,4.51
2023-01-31T12:49:05.681Z,4.73
2023-01-31T12:51:23.191Z,4.64
2023-01-31T12:53:37.211Z,4.82
2023-01-31T12:55:52.070Z,4.34
2023-01-31T12:58:11.149Z,4.35
2023-01-31T13:00:26.037Z,4.43
2023-01-31T13:02:45.399Z,4.44
2023-01-31T13:04:53.237Z,4.48
2023-01-31T13:07:00.269Z,4.42
2023-01-31T13:09:09.300Z,4.57
2023-01-31T13:11:16.976Z,4.45
2023-01-31T13:13:25.402Z,4.27
2023-01-31T13:15:33.778Z,4.29
2023-01-31T13:17:41.647Z,4.48
2023-01-31T13:19:51.856Z,4.53
2023-01-31T13:21:59.354Z,4.24
2023-01-31T13:24:07.736Z,4.10
2023-01-31T13:26:14.552Z,3.98
2023-01-31T13:28:22.278Z,4.11
2023-01-31T13:30:37.778Z,3.88
2023-01-31T13:32:46.208Z,4.07
2023-01-31T13:34:53.923Z,3.77
2023-01-31T13:37:02.511Z,4.07
2023-01-31T13:39:13.722Z,3.93
2023-01-31T13:41:26.852Z,3.77
2023-01-31T13:43:29.597Z,3.73
2023-01-31T13:45:37.189Z,3.63
2023-01-31T13:47:49.921Z,3.76
2023-01-31T13:49:57.210Z,3.79
2023-01-31T13:52:05.033Z,3.69
2023-01-31T13:54:16.843Z,3.55
2023-01-31T13:56:25.913Z,3.48
2023-01-31T13:58:34.418Z,3.52
2023-01-31T14:00:41.867Z,3.49
2023-01-31T14:03:00.880Z,3.57
2023-01-31T14:05:30.130Z,3.57
2023-01-31T14:07:34.349Z,3.65
2023-01-31T14:09:40.452Z,3.50
2023-01-31T14:11:45.904Z,3.58
2023-01-31T14:13:49.936Z,3.54
2023-01-31T14:15:53.677Z,3.43
2023-01-31T14:18:02.320Z,3.46
2023-01-31T14:20:08.196Z,3.64
2023-01-31T14:22:16.807Z,3.63
2023-01-31T14:24:44.113Z,3.53
2023-01-31T14:26:54.199Z,3.52
2023-01-31T14:28:56.921Z,3.50
2023-01-31T14:30:59.642Z,3.51
2023-01-31T14:33:09.108Z,3.55
2023-01-31T14:35:31.910Z,3.64
2023-01-31T14:37:44.845Z,3.72
2023-01-31T14:40:05.413Z,3.58
2023-01-31T14:42:34.687Z,3.67
2023-01-31T14:44:52.480Z,3.68
2023-01-31T14:47:09.576Z,3.61
2023-01-31T14:49:26.819Z,3.72
2023-01-31T14:51:42.019Z,3.79
2023-01-31T14:54:09.932Z,3.69
2023-01-31T14:56:27.679Z,3.61
2023-01-31T14:58:34.176Z,3.56
2023-01-31T15:00:39.719Z,3.66
2023-01-31T15:02:49.288Z,3.56
2023-01-31T15:04:57.720Z,3.51
2023-01-31T15:07:00.404Z,3.53
2023-01-31T15:09:28.968Z,3.64
2023-01-31T15:11:43.178Z,3.59
2023-01-31T15:13:49.147Z,3.56
2023-01-31T15:15:54.747Z,3.71
2023-01-31T15:18:01.694Z,3.63
2023-01-31T15:20:14.393Z,3.75
2023-01-31T15:22:18.910Z,3.83
2023-01-31T15:24:26.166Z,3.86
2023-01-31T15:26:32.870Z,3.97
2023-01-31T15:28:39.080Z,3.87
2023-01-31T15:30:42.985Z,3.87
2023-01-31T15:32:52.988Z,3.97
2023-01-31T15:35:01.955Z,3.82
2023-01-31T15:37:10.391Z,3.79
2023-01-31T15:39:23.975Z,3.84
2023-01-31T15:41:33.913Z,3.84
2023-01-31T15:43:39.641Z,3.67
2023-01-31T15:45:42.425Z,3.72
2023-01-31T15:47:55.132Z,3.75
2023-01-31T15:49:57.792Z,3.70
2023-01-31T15:52:12.331Z,3.84
2023-01-31T15:54:16.618Z,3.79
2023-01-31T15:56:24.305Z,3.76
2023-01-31T15:58:29.641Z,3.81
2023-01-31T16:00:36.190Z,3.70
2023-01-31T16:02:38.850Z,3.82
2023-01-31T16:04:41.760Z,3.78
2023-01-31T16:06:44.392Z,3.88
2023-01-31T16:08:53.795Z,3.82
2023-01-31T16:10:57.944Z,3.73
2023-01-31T16:13:02.417Z,3.85
2023-01-31T16:15:08.755Z,3.86
2023-01-31T16:17:13.029Z,3.79
2023-01-31T16:19:23.364Z,3.75
2023-01-31T16:21:30.792Z,3.76
2023-01-31T16:23:35.543Z,3.69
2023-01-31T16:25:39.088Z,3.74
2023-01-31T16:27:45.325Z,3.73
2023-01-31T16:29:50.426Z,3.70
2023-01-31T16:31:55.287Z,3.75
2023-01-31T16:34:01.578Z,3.77
2023-01-31T16:36:13.940Z,3.78
2023-01-31T16:38:21.812Z,3.79
2023-01-31T16:40:29.692Z,3.81
2023-01-31T16:42:35.244Z,3.84
2023-01-31T16:44:42.860Z,3.76
2023-01-31T16:46:47.200Z,3.70
2023-01-31T16:49:06.536Z,3.74
2023-01-31T16:51:41.043Z,3.72
2023-01-31T16:53:43.674Z,3.76
2023-01-31T16:55:46.644Z,3.71
2023-01-31T16:57:49.476Z,3.62
2023-01-31T16:59:53.784Z,3.63
2023-01-31T17:02:03.291Z,3.73
2023-01-31T17:04:18.605Z,3.67
2023-01-31T17:06:23.277Z,3.65
2023-01-31T17:08:25.956Z,3.72
2023-01-31T17:10:31.111Z,3.63
2023-01-31T17:12:36.333Z,3.71
2023-01-31T17:14:39.028Z,3.66
2023-01-31T17:16:41.703Z,3.65
2023-01-31T17:18:44.279Z,3.60
2023-01-31T17:20:50.755Z,3.57
2023-01-31T17:23:02.454Z,3.70
2023-01-31T17:25:15.545Z,3.70
2023-01-31T17:27:19.829Z,3.72
2023-01-31T17:29:23.208Z,3.63
2023-01-31T17:31:29.316Z,3.62
2023-01-31T17:33:31.962Z,3.63
2023-01-31T17:35:38.666Z,3.69
2023-01-31T17:37:42.595Z,3.67
2023-01-31T17:39:45.290Z,3.70
2023-01-31T17:41:48.146Z,3.65
2023-01-31T17:43:50.813Z,3.65
2023-01-31T17:45:56.461Z,3.66
2023-01-31T17:47:59.369Z,3.62
2023-01-31T17:50:02.061Z,3.59
2023-01-31T17:52:05.683Z,3.58
2023-01-31T17:54:10.248Z,3.63
2023-01-31T17:56:12.907Z,3.58
2023-01-31T17:58:18.839Z,3.55
2023-01-31T18:00:22.222Z,3.60
2023-01-31T18:02:24.907Z,3.58
2023-01-31T18:04:27.793Z,3.55
2023-01-31T18:06:30.439Z,3.54
2023-01-31T18:08:33.485Z,3.59
2023-01-31T18:10:37.590Z,3.51
2023-01-31T18:12:40.222Z,3.58
2023-01-31T18:14:42.899Z,3.55
2023-01-31T18:16:45.639Z,3.59
2023-01-31T18:18:48.538Z,3.53
2023-01-31T18:20:51.137Z,3.47
2023-01-31T18:22:53.769Z,3.43
2023-01-31T18:24:56.542Z,3.42
2023-01-31T18:27:01.097Z,3.41
2023-01-31T18:29:03.882Z,3.36
2023-01-31T18:31:10.596Z,3.37
2023-01-31T18:33:13.376Z,3.39
2023-01-31T18:35:16.030Z,3.41
2023-01-31T18:37:20.480Z,3.38
2023-01-31T18:39:23.568Z,3.43
2023-01-31T18:41:26.205Z,3.42
2023-01-31T18:43:30.746Z,3.45
2023-01-31T18:45:33.371Z,3.46
2023-01-31T18:47:35.926Z,3.50
2023-01-31T18:49:38.679Z,3.50
2023-01-31T18:51:42.735Z,3.44
2023-01-31T18:53:48.089Z,3.50
2023-01-31T18:55:59.771Z,3.52
2023-01-31T18:58:02.458Z,3.45
2023-01-31T19:00:07.609Z,3.57
2023-01-31T19:02:11.414Z,3.50
2023-01-31T19:04:14.218Z,3.49
2023-01-31T19:06:18.893Z,3.56
2023-01-31T19:08:21.522Z,3.52
2023-01-31T19:10:24.272Z,3.47
2023-01-31T19:12:26.983Z,3.53
2023-01-31T19:14:30.016Z,3.54
2023-01-31T19:16:37.231Z,3.56
2023-01-31T19:18:40.341Z,3.48
2023-01-31T19:20:43.096Z,3.49
2023-01-31T19:22:45.808Z,3.54
2023-01-31T19:24:48.474Z,3.53
2023-01-31T19:26:51.193Z,3.54
2023-01-31T19:28:54.479Z,3.46
2023-01-31T19:30:57.146Z,3.50
2023-01-31T19:33:01.132Z,3.47
2023-01-31T19:35:03.794Z,3.51
2023-01-31T19:37:06.447Z,3.50
2023-01-31T19:39:11.744Z,3.56
2023-01-31T19:41:17.087Z,3.49
2023-01-31T19:43:19.953Z,3.41
2023-01-31T19:45:23.151Z,3.50
2023-01-31T19:47:26.064Z,3.46
2023-01-31T19:49:30.073Z,3.47
2023-01-31T19:51:33.586Z,3.33
2023-01-31T19:53:36.777Z,3.36
2023-01-31T19:55:39.381Z,3.29
2023-01-31T19:57:42.061Z,3.33
2023-01-31T19:59:45.118Z,3.30
2023-01-31T20:01:47.785Z,3.36
2023-01-31T20:03:51.087Z,3.33
2023-01-31T20:05:55.365Z,3.27
2023-01-31T20:07:58.021Z,3.24
2023-01-31T20:10:00.784Z,3.22
2023-01-31T20:12:03.447Z,3.20
2023-01-31T20:14:06.540Z,3.22
2023-01-31T20:16:11.794Z,3.15
2023-01-31T20:18:14.587Z,3.19
2023-01-31T20:20:17.410Z,3.17
2023-01-31T20:22:22.867Z,3.19
2023-01-31T20:24:25.557Z,3.12
2023-01-31T20:26:29.598Z,3.16
2023-01-31T20:28:32.352Z,3.14
2023-01-31T20:30:35.437Z,3.13
2023-01-31T20:32:38.194Z,3.14
2023-01-31T20:34:40.806Z,3.24
2023-01-31T20:36:43.475Z,3.25
2023-01-31T20:38:47.455Z,3.28
2023-01-31T20:40:51.650Z,3.33
2023-01-31T20:42:54.316Z,3.29
2023-01-31T20:44:56.978Z,3.32
2023-01-31T20:46:59.654Z,3.37
2023-01-31T20:49:02.268Z,3.38
2023-01-31T20:51:05.590Z,3.38
2023-01-31T20:53:18.446Z,3.39
2023-01-31T20:55:22.309Z,3.49
2023-01-31T20:57:24.914Z,3.41
2023-01-31T20:59:27.633Z,3.45
2023-01-31T21:01:30.350Z,3.42
2023-01-31T21:03:33.214Z,3.39
2023-01-31T21:05:38.734Z,3.43
2023-01-31T21:07:41.388Z,3.45
2023-01-31T21:09:44.121Z,3.38
2023-01-31T21:11:48.094Z,3.37
2023-01-31T21:13:50.859Z,3.22
2023-01-31T21:15:54.390Z,3.15
2023-01-31T21:17:57.127Z,3.08
2023-01-31T21:19:59.779Z,3.03
2023-01-31T21:22:02.378Z,2.98
2023-01-31T21:24:05.536Z,2.97
2023-01-31T21:26:10.056Z,2.92
2023-01-31T21:28:14.262Z,2.89
2023-01-31T21:30:17.657Z,2.84
2023-01-31T21:32:20.339Z,2.83
2023-01-31T21:34:26.899Z,2.80
2023-01-31T21:36:29.587Z,2.85
2023-01-31T21:38:32.884Z,2.82
2023-01-31T21:40:35.468Z,2.79
2023-01-31T21:42:39.173Z,2.71
2023-01-31T21:44:43.210Z,2.73
2023-01-31T21:46:46.560Z,2.72
2023-01-31T21:48:49.372Z,2.83
2023-01-31T21:50:52.133Z,2.86
2023-01-31T21:52:54.867Z,2.88
2023-01-31T21:54:57.571Z,2.95
2023-01-31T21:57:00.760Z,3.05
2023-01-31T21:59:03.442Z,3.09
2023-01-31T22:01:09.279Z,3.05
2023-01-31T22:03:12.220Z,3.07
2023-01-31T22:05:14.969Z,3.16
2023-01-31T22:07:17.645Z,3.15
2023-01-31T22:09:20.336Z,3.19
2023-01-31T22:11:23.568Z,3.25
2023-01-31T22:13:26.231Z,3.29
2023-01-31T22:15:28.879Z,3.28
2023-01-31T22:17:32.925Z,3.37
2023-01-31T22:19:35.667Z,3.36
2023-01-31T22:21:38.819Z,3.36
2023-01-31T22:23:42.883Z,3.39
2023-01-31T22:25:45.622Z,3.42
2023-01-31T22:27:48.293Z,3.45
2023-01-31T22:29:50.885Z,3.44
2023-01-31T22:31:55.954Z,3.45
2023-01-31T22:34:01.052Z,3.50
2023-01-31T22:36:03.887Z,3.44
2023-01-31T22:38:06.633Z,3.46
2023-01-31T22:40:10.752Z,3.52
2023-01-31T22:42:13.436Z,3.48
2023-01-31T22:44:16.049Z,3.46
2023-01-31T22:46:21.366Z,3.49
2023-01-31T22:48:26.120Z,3.36
2023-01-31T22:50:30.105Z,3.36
2023-01-31T22:52:32.757Z,3.33
2023-01-31T22:54:35.586Z,3.30
2023-01-31T22:56:38.378Z,3.21
2023-01-31T22:58:41.222Z,3.25
2023-01-31T23:00:44.183Z,3.18
2023-01-31T23:02:46.994Z,3.05
2023-01-31T23:04:51.469Z,3.00
2023-01-31T23:06:55.436Z,3.02
2023-01-31T23:08:59.052Z,2.94
2023-01-31T23:11:05.473Z,2.92
2023-01-31T23:13:09.206Z,2.87
2023-01-31T23:15:13.159Z,2.84
2023-01-31T23:17:33.655Z,2.84
2023-01-31T23:19:37.871Z,2.84
2023-01-31T23:21:42.522Z,2.84
2023-01-31T23:23:47.306Z,2.83
2023-01-31T23:25:50.200Z,2.84
2023-01-31T23:27:53.120Z,2.79
2023-01-31T23:29:55.881Z,2.79
2023-01-31T23:31:58.645Z,2.83
2023-01-31T23:34:01.403Z,2.84
2023-01-31T23:36:04.519Z,2.77
2023-01-31T23:38:07.176Z,2.83
2023-01-31T23:40:12.785Z,2.74
2023-01-31T23:42:15.627Z,2.82
2023-01-31T23:44:18.338Z,2.79
2023-01-31T23:46:21.148Z,2.80
2023-01-31T23:48:23.803Z,2.78
2023-01-31T23:50:26.671Z,2.75
2023-01-31T23:52:29.438Z,2.75
2023-01-31T23:54:32.183Z,2.76
2023-01-31T23:56:36.400Z,2.70
2023-01-31T23:58:39.062Z,2.75
